メインページ
METAR-TAF:

METAR-TAF

空港 :

ヒューストン, テキサス州, アメリカ合衆国

ジョージ・ブッシュ・インターコンチネンタル空港

緯度: 29-59-33N, 経度: 095-21-50W, 海抜: 29m

現時点の気象観測

当レポートは36分前の15:53(UTC)に作成
北/北東の風 12kt
気温 18°C
湿度 64%
気圧 1025 hPa
視程: 16.1km
高度2500ftの雲はほとんどない

METAR: KIAH 221553Z 02012KT 10SM FEW025 18/11 A3026 RMK AO2 SLP245 T01780106

時間: 10:29 (16:29 UTC)

予報

当レポートは1時間26分前の15:03(UTC)に作成
予報は22日の 15時(UTC)から 23日の 18時(UTC)まで有効
の風 15kt
視程: 10km
高度1600ftの雲はほとんどない
22日の 1800時(UTC)から
の風 13kt
視程: 10km
晴天
23日の 0100時(UTC)から
の風 4kt
視程: 10km
晴天

TAF: KIAH 221503Z 2215/2318 01015KT P6SM FEW016 FM221800 35013KT P6SM SKC FM230100 35004KT P6SM SKC

4,000以上の空港の気象観測と天気予報(METAR報とTAF報)

利用可能な観測所は地図上に黄色い丸と赤い丸で示す。

丸の上にカーソルを重ねると観測所名を参照できる。

次にクリックすると気象観測と天気予報を参照できる。

マップの切り替え:黒色「×」印の緑ボタンをクリックして拡大、「-」印の緑ボタンをクリックして縮小、緑色の三角印をクリックして隣りの地図に切り替え


METAR-TAF: